Time;durP1;ratioP1;P1;durP2;ratioP2;P2;SDS_P1;SDS_P2;PMS_P1;PMS_P2;Temp;Humidity;BMP_temperature;BMP_pressure;BME280_temperature;BME280_humidity;BME280_pressure;Samples;Min_cycle;Max_cycle;Signal;HPM_P1;HPM_P2
2022/07/03 00:01:19;;;;;;;1.27;0.50;;;17.60;99.90;;;;;;20776965;28;20057;-80
2022/07/03 00:11:21;;;;;;;0.50;0.30;;;17.30;99.90;;;;;;20774888;28;20038;-80
2022/07/03 00:21:29;;;;;;;1.52;0.43;;;17.20;99.90;;;;;;20772692;28;20080;-80
2022/07/03 00:31:33;;;;;;;1.63;0.45;;;17.00;99.90;;;;;;20752937;28;20048;-80
2022/07/03 00:41:35;;;;;;;1.83;0.60;;;16.80;99.90;;;;;;20765923;28;20055;-81
2022/07/03 00:51:40;;;;;;;0.85;0.40;;;16.80;99.90;;;;;;20752902;28;20079;-80
2022/07/03 01:01:42;;;;;;;1.50;0.70;;;16.80;99.90;;;;;;20772482;28;20063;-80
2022/07/03 01:11:48;;;;;;;0.93;0.50;;;16.60;99.90;;;;;;20753455;28;20402;-80
2022/07/03 01:22:17;;;;;;;1.10;0.75;;;16.50;99.90;;;;;;20762658;28;20141;-80
2022/07/03 01:32:21;;;;;;;0.77;0.32;;;16.60;99.90;;;;;;20740243;28;20188;-80
2022/07/03 01:42:24;;;;;;;1.60;0.50;;;16.40;99.90;;;;;;20761321;28;20079;-80
2022/07/03 01:52:30;;;;;;;1.42;0.63;;;16.20;99.90;;;;;;20761249;28;20045;-80
2022/07/03 02:02:33;;;;;;;1.42;0.63;;;16.10;99.90;;;;;;20747315;28;20042;-80
2022/07/03 02:13:07;;;;;;;2.53;0.60;;;16.20;99.90;;;;;;20772161;28;20050;-80
2022/07/03 02:23:11;;;;;;;1.90;0.80;;;16.20;99.90;;;;;;20734339;28;20453;-80
2022/07/03 02:33:17;;;;;;;1.70;0.63;;;16.10;99.90;;;;;;21397142;23;20504;-80
2022/07/03 02:43:33;;;;;;;1.93;1.03;;;16.20;99.90;;;;;;20741045;28;20377;-80
2022/07/03 02:53:41;;;;;;;1.88;0.65;;;16.30;99.90;;;;;;20747111;28;20044;-79
2022/07/03 03:03:54;;;;;;;1.30;0.65;;;16.30;99.90;;;;;;20756502;28;20068;-80
2022/07/03 03:13:57;;;;;;;1.27;0.60;;;16.30;99.90;;;;;;20741596;28;20041;-80
2022/07/03 03:23:59;;;;;;;1.50;0.60;;;16.30;99.90;;;;;;20750478;28;20464;-80
2022/07/03 03:34:02;;;;;;;1.77;0.75;;;16.20;99.90;;;;;;20740023;28;20049;-80
2022/07/03 03:44:03;;;;;;;1.33;0.70;;;16.20;99.90;;;;;;20738606;28;20042;-80
2022/07/03 03:54:04;;;;;;;1.30;0.52;;;16.20;99.90;;;;;;20761112;28;20041;-80
2022/07/03 04:04:06;;;;;;;1.65;0.50;;;16.30;99.90;;;;;;20763167;28;20354;-80
2022/07/03 04:14:07;;;;;;;1.20;0.50;;;16.30;99.90;;;;;;20761865;28;20056;-80
2022/07/03 04:24:08;;;;;;;1.27;0.52;;;16.40;99.90;;;;;;20769531;28;20037;-80
2022/07/03 04:34:09;;;;;;;1.63;0.73;;;16.50;99.90;;;;;;20763039;28;20042;-80
2022/07/03 04:44:10;;;;;;;1.00;0.32;;;16.50;99.90;;;;;;20766979;28;20500;-79
2022/07/03 04:54:11;;;;;;;1.40;0.60;;;16.60;99.90;;;;;;20737932;28;20065;-80
2022/07/03 05:04:12;;;;;;;0.73;0.20;;;16.70;99.90;;;;;;20749416;28;20041;-80
2022/07/03 05:14:13;;;;;;;2.03;0.40;;;16.80;99.90;;;;;;20765066;28;20048;-79
2022/07/03 05:24:14;;;;;;;1.88;0.30;;;17.00;99.90;;;;;;20773563;28;20462;-79
2022/07/03 05:34:15;;;;;;;1.00;0.32;;;17.20;99.90;;;;;;20736973;28;20046;-80
2022/07/03 05:44:17;;;;;;;13.88;0.98;;;17.30;99.90;;;;;;20746505;28;20062;-79
2022/07/03 05:54:18;;;;;;;1.65;0.40;;;17.50;99.90;;;;;;20744579;28;20041;-79
2022/07/03 06:04:19;;;;;;;1.65;0.30;;;17.70;99.90;;;;;;20753308;28;20056;-80
2022/07/03 06:14:20;;;;;;;0.73;0.20;;;17.80;99.90;;;;;;20753327;28;20048;-80
2022/07/03 06:24:22;;;;;;;1.75;0.30;;;17.90;99.90;;;;;;20764943;28;20053;-80
2022/07/03 06:34:23;;;;;;;1.38;0.60;;;18.10;99.90;;;;;;20754476;28;20053;-81
2022/07/03 06:44:24;;;;;;;1.00;0.30;;;18.30;99.90;;;;;;20752314;28;20041;-81
2022/07/03 06:54:25;;;;;;;0.63;0.40;;;18.60;99.90;;;;;;20753046;28;20592;-79
2022/07/03 07:04:27;;;;;;;6.68;0.45;;;18.70;99.90;;;;;;20760899;28;20045;-79
2022/07/03 07:14:29;;;;;;;2.22;0.40;;;18.80;99.90;;;;;;20751810;28;20125;-79
2022/07/03 07:24:30;;;;;;;1.25;0.45;;;18.80;99.90;;;;;;20754489;28;20062;-79
2022/07/03 07:34:31;;;;;;;0.80;0.40;;;18.90;99.90;;;;;;20762672;28;20053;-79
2022/07/03 07:44:32;;;;;;;0.52;0.20;;;19.10;99.90;;;;;;20744173;28;20040;-79
2022/07/03 07:54:33;;;;;;;0.25;0.17;;;19.20;99.90;;;;;;20758548;28;20519;-79
2022/07/03 08:14:54;;;;;;;2.53;0.32;;;19.90;99.90;;;;;;20765083;28;20412;-79
2022/07/03 08:24:55;;;;;;;0.47;0.28;;;19.70;99.90;;;;;;20742114;28;20050;-79
2022/07/03 08:34:56;;;;;;;1.17;0.55;;;19.80;99.90;;;;;;20760371;28;20049;-79
2022/07/03 08:44:59;;;;;;;1.30;0.50;;;20.10;99.90;;;;;;20759335;28;20387;-79
2022/07/03 08:55:02;;;;;;;1.10;0.50;;;20.40;99.90;;;;;;20746988;28;20065;-78
2022/07/03 09:05:07;;;;;;;1.80;0.40;;;21.30;99.90;;;;;;20764489;28;20417;-78
2022/07/03 09:15:09;;;;;;;5.35;0.38;;;20.90;99.90;;;;;;20737304;28;20040;-79
2022/07/03 09:25:14;;;;;;;0.45;0.25;;;20.30;99.90;;;;;;20750401;28;20325;-79
2022/07/03 09:35:25;;;;;;;1.33;0.40;;;20.10;99.90;;;;;;20729815;28;20120;-79
2022/07/03 09:45:27;;;;;;;0.98;0.45;;;20.80;99.90;;;;;;20705083;28;20143;-78
2022/07/03 09:55:28;;;;;;;0.73;0.30;;;21.00;99.90;;;;;;20722193;28;20045;-78
2022/07/03 10:05:32;;;;;;;1.83;0.70;;;21.00;99.90;;;;;;20712366;28;20409;-78
2022/07/03 10:15:39;;;;;;;1.27;0.40;;;20.60;99.90;;;;;;20726533;28;20824;-78
2022/07/03 10:25:42;;;;;;;1.40;0.50;;;20.30;99.90;;;;;;20718506;28;20064;-79
2022/07/03 10:35:54;;;;;;;1.73;0.40;;;19.90;99.90;;;;;;20703430;28;20042;-79
2022/07/03 10:46:15;;;;;;;1.40;0.43;;;19.40;99.90;;;;;;20721321;28;20056;-80
2022/07/03 10:56:17;;;;;;;0.57;0.35;;;18.10;99.90;;;;;;20698854;28;20117;-79
2022/07/03 11:06:18;;;;;;;1.75;0.30;;;17.40;99.90;;;;;;20716935;28;20050;-80
2022/07/03 11:16:24;;;;;;;1.25;0.60;;;17.60;99.90;;;;;;20724602;28;20120;-80
2022/07/03 11:26:25;;;;;;;0.90;0.60;;;18.30;99.90;;;;;;20738583;28;20052;-79
2022/07/03 11:36:31;;;;;;;1.10;0.30;;;18.60;99.90;;;;;;20734604;28;20056;-79
2022/07/03 11:46:39;;;;;;;1.48;0.30;;;18.50;99.90;;;;;;20752791;28;20052;-77
2022/07/03 11:56:40;;;;;;;0.60;0.20;;;18.40;99.90;;;;;;20755909;28;20049;-80
2022/07/03 12:06:44;;;;;;;2.10;0.65;;;18.20;99.90;;;;;;20723206;28;20048;-80
2022/07/03 12:16:46;;;;;;;0.60;0.20;;;17.80;99.90;;;;;;20715150;28;20531;-80
2022/07/03 12:26:48;;;;;;;0.75;0.43;;;17.50;99.90;;;;;;20709605;28;20050;-79
2022/07/03 12:36:59;;;;;;;2.42;0.80;;;17.60;99.90;;;;;;20746559;28;20041;-79
2022/07/03 12:47:00;;;;;;;1.15;0.60;;;18.30;99.90;;;;;;20746684;28;20262;-79
2022/07/03 13:07:30;;;;;;;3.33;0.47;;;18.70;99.90;;;;;;20728251;28;21590;-79
2022/07/03 13:17:55;;;;;;;0.60;0.30;;;19.10;99.90;;;;;;20716083;28;20044;-79
2022/07/03 13:28:06;;;;;;;0.50;0.20;;;18.80;99.90;;;;;;20740667;28;20388;-79
2022/07/03 13:38:07;;;;;;;1.00;0.30;;;18.50;99.90;;;;;;20729019;28;20370;-79
2022/07/03 13:48:09;;;;;;;0.60;0.30;;;18.50;99.90;;;;;;20718907;28;20259;-79
2022/07/03 13:58:10;;;;;;;1.63;0.20;;;19.00;99.90;;;;;;20727114;28;20048;-79
2022/07/03 14:08:11;;;;;;;0.75;0.20;;;18.90;99.90;;;;;;20727967;28;20055;-79
2022/07/03 14:18:13;;;;;;;0.30;0.20;;;19.00;99.90;;;;;;20717635;28;20057;-79
2022/07/03 14:38:34;;;;;;;0.38;0.20;;;19.80;99.90;;;;;;20717056;28;20506;-79
2022/07/03 14:48:35;;;;;;;2.60;0.50;;;20.00;99.90;;;;;;20729010;28;20053;-78
2022/07/03 14:58:39;;;;;;;0.95;0.30;;;20.00;99.90;;;;;;20709798;28;20053;-79
2022/07/03 15:08:53;;;;;;;0.73;0.25;;;20.10;99.90;;;;;;20730668;28;20045;-79
2022/07/03 15:18:57;;;;;;;0.60;0.30;;;20.10;99.90;;;;;;20712408;28;20054;-79
2022/07/03 15:29:00;;;;;;;0.52;0.25;;;20.50;99.90;;;;;;20724664;28;20385;-79
2022/07/03 15:39:07;;;;;;;0.50;0.30;;;20.40;99.90;;;;;;20708930;28;20053;-79
2022/07/03 15:49:34;;;;;;;0.70;0.30;;;20.40;99.90;;;;;;20740870;28;20037;-79
2022/07/03 15:59:39;;;;;;;2.60;0.40;;;20.30;99.90;;;;;;20734588;28;20045;-79
2022/07/03 16:09:41;;;;;;;0.90;0.40;;;20.30;99.90;;;;;;20740829;28;20064;-79
2022/07/03 16:19:45;;;;;;;0.63;0.30;;;20.10;99.90;;;;;;20747758;28;20034;-79
2022/07/03 16:29:47;;;;;;;1.40;0.55;;;20.10;99.90;;;;;;20745089;28;20063;-79
2022/07/03 16:39:53;;;;;;;0.52;0.20;;;20.10;99.90;;;;;;20726316;28;20630;-79
2022/07/03 16:49:55;;;;;;;0.95;0.70;;;20.00;99.90;;;;;;20745182;28;20049;-79
2022/07/03 16:59:58;;;;;;;1.40;0.20;;;19.80;99.90;;;;;;20719525;28;20722;-80
2022/07/03 17:10:00;;;;;;;0.60;0.30;;;19.60;99.90;;;;;;20734131;28;20037;-79
2022/07/03 17:20:09;;;;;;;2.00;0.30;;;19.40;99.90;;;;;;20726178;28;20064;-80
2022/07/03 17:30:11;;;;;;;1.52;0.40;;;19.50;99.90;;;;;;20733805;28;20317;-79
2022/07/03 17:40:14;;;;;;;4.80;2.17;;;19.40;99.90;;;;;;20750084;28;20052;-79
2022/07/03 17:50:17;;;;;;;1.17;0.20;;;19.20;99.90;;;;;;20723750;28;20032;-82
2022/07/03 18:00:21;;;;;;;0.82;0.30;;;19.10;99.90;;;;;;20732763;28;20057;-79
2022/07/03 18:10:44;;;;;;;1.83;0.40;;;19.10;99.90;;;;;;20729581;28;20040;-79
2022/07/03 18:20:46;;;;;;;0.52;0.20;;;18.90;99.90;;;;;;20742001;28;20048;-79
2022/07/03 18:30:47;;;;;;;0.63;0.25;;;18.70;99.90;;;;;;20733376;28;20513;-79
2022/07/03 18:40:48;;;;;;;1.95;0.30;;;18.60;99.90;;;;;;20730746;28;20046;-79
2022/07/03 18:50:50;;;;;;;0.85;0.30;;;18.40;99.90;;;;;;20753557;28;20037;-79
2022/07/03 19:00:55;;;;;;;0.32;0.10;;;18.30;99.90;;;;;;20725400;28;20057;-79
2022/07/03 19:11:07;;;;;;;0.88;0.30;;;18.10;99.90;;;;;;20713093;28;20084;-78
2022/07/03 19:21:09;;;;;;;1.73;0.20;;;18.00;99.90;;;;;;20734815;28;20060;-79
2022/07/03 19:31:10;;;;;;;1.42;0.30;;;17.90;99.90;;;;;;20741624;28;20407;-79
2022/07/03 19:41:11;;;;;;;0.73;0.30;;;17.80;99.90;;;;;;20733978;28;20053;-79
2022/07/03 19:51:13;;;;;;;0.50;0.30;;;17.60;99.90;;;;;;20700234;28;20064;-80
2022/07/03 20:01:14;;;;;;;1.05;0.20;;;17.40;99.90;;;;;;20708505;28;20048;-80
2022/07/03 20:11:15;;;;;;;1.30;0.52;;;17.30;99.90;;;;;;20727847;28;20056;-80
2022/07/03 20:21:16;;;;;;;1.63;0.80;;;17.10;99.90;;;;;;20727616;28;20050;-80
2022/07/03 20:31:17;;;;;;;1.50;0.52;;;16.90;99.90;;;;;;20704963;28;20048;-80
2022/07/03 20:41:18;;;;;;;2.35;0.70;;;16.80;99.90;;;;;;20713986;28;20065;-80
2022/07/03 20:51:21;;;;;;;1.13;0.40;;;16.70;99.90;;;;;;20697268;28;20042;-81
2022/07/03 21:01:22;;;;;;;1.45;0.50;;;16.50;99.90;;;;;;20692621;28;20587;-80
2022/07/03 21:11:41;;;;;;;1.38;0.47;;;16.40;99.90;;;;;;20715808;28;20189;-80
2022/07/03 21:21:43;;;;;;;0.80;0.40;;;16.20;99.90;;;;;;20713006;28;20042;-80
2022/07/03 21:31:45;;;;;;;0.68;0.40;;;16.10;99.90;;;;;;20710310;28;20571;-80
2022/07/03 21:41:46;;;;;;;1.10;0.30;;;15.90;99.90;;;;;;20625681;28;20421;-80
2022/07/03 21:51:47;;;;;;;1.00;0.30;;;15.80;99.90;;;;;;20617305;28;20049;-80
2022/07/03 22:01:48;;;;;;;1.02;0.40;;;15.70;99.90;;;;;;20624481;28;20509;-81
2022/07/03 22:12:33;;;;;;;1.95;0.35;;;15.50;99.90;;;;;;20641481;28;20049;-81
2022/07/03 22:22:10;;;;;;;1.02;0.40;;;15.50;99.90;;;;;;20618111;28;20320;-81
2022/07/03 22:32:12;;;;;;;0.85;0.38;;;15.40;99.90;;;;;;20623718;28;20045;-80
2022/07/03 22:42:13;;;;;;;0.82;0.30;;;15.40;99.90;;;;;;20694136;28;20464;-81
2022/07/03 22:52:15;;;;;;;1.52;1.00;;;15.20;99.90;;;;;;20706282;28;20034;-81
2022/07/03 23:02:16;;;;;;;1.75;0.40;;;15.10;99.90;;;;;;20685395;28;20247;-81
2022/07/03 23:12:17;;;;;;;1.15;0.35;;;15.00;99.90;;;;;;20699929;28;20041;-81
2022/07/03 23:22:18;;;;;;;0.90;0.30;;;15.00;99.90;;;;;;20702647;28;20045;-81
2022/07/03 23:32:21;;;;;;;1.15;0.85;;;14.80;99.90;;;;;;20714207;28;20692;-80
2022/07/03 23:42:22;;;;;;;1.10;0.43;;;14.80;99.90;;;;;;20698223;28;21434;-80
2022/07/03 23:52:23;;;;;;;1.10;0.40;;;14.70;99.90;;;;;;20723368;28;20061;-81
